sensor_id;sensor_type;location;lat;lon;timestamp;P1;durP1;ratioP1;P2;durP2;ratioP2
40204;SDS011;26963;42.666;23.366;2023-09-18T00:00:03;20.88;;;18.65;;
40204;SDS011;26963;42.666;23.366;2023-09-18T00:02:38;24.30;;;19.33;;
40204;SDS011;26963;42.666;23.366;2023-09-18T00:05:03;21.23;;;18.90;;
40204;SDS011;26963;42.666;23.366;2023-09-18T00:07:32;23.00;;;20.80;;
40204;SDS011;26963;42.666;23.366;2023-09-18T00:09:58;20.83;;;18.83;;
40204;SDS011;26963;42.666;23.366;2023-09-18T00:12:23;21.65;;;19.55;;
40204;SDS011;26963;42.666;23.366;2023-09-18T00:14:49;20.80;;;18.90;;
40204;SDS011;26963;42.666;23.366;2023-09-18T00:17:15;21.10;;;19.00;;
40204;SDS011;26963;42.666;23.366;2023-09-18T00:19:42;21.35;;;19.40;;
40204;SDS011;26963;42.666;23.366;2023-09-18T00:22:11;20.95;;;18.75;;
40204;SDS011;26963;42.666;23.366;2023-09-18T00:24:37;22.48;;;20.25;;
40204;SDS011;26963;42.666;23.366;2023-09-18T00:27:02;21.27;;;19.25;;
40204;SDS011;26963;42.666;23.366;2023-09-18T00:29:28;22.30;;;20.38;;
40204;SDS011;26963;42.666;23.366;2023-09-18T00:31:54;22.17;;;19.98;;
40204;SDS011;26963;42.666;23.366;2023-09-18T00:34:19;22.60;;;20.40;;
40204;SDS011;26963;42.666;23.366;2023-09-18T00:36:45;23.10;;;20.63;;
40204;SDS011;26963;42.666;23.366;2023-09-18T00:39:10;23.05;;;20.75;;
40204;SDS011;26963;42.666;23.366;2023-09-18T00:41:41;22.58;;;20.38;;
40204;SDS011;26963;42.666;23.366;2023-09-18T00:44:07;22.75;;;20.45;;
40204;SDS011;26963;42.666;23.366;2023-09-18T00:46:33;23.42;;;21.08;;
40204;SDS011;26963;42.666;23.366;2023-09-18T00:48:58;23.60;;;21.10;;
40204;SDS011;26963;42.666;23.366;2023-09-18T00:51:24;21.95;;;19.98;;
40204;SDS011;26963;42.666;23.366;2023-09-18T00:53:51;23.00;;;20.35;;
40204;SDS011;26963;42.666;23.366;2023-09-18T00:56:16;23.48;;;21.17;;
40204;SDS011;26963;42.666;23.366;2023-09-18T00:58:45;23.20;;;20.90;;
40204;SDS011;26963;42.666;23.366;2023-09-18T01:01:11;23.13;;;20.52;;
40204;SDS011;26963;42.666;23.366;2023-09-18T01:03:41;22.63;;;20.45;;
40204;SDS011;26963;42.666;23.366;2023-09-18T01:06:07;20.92;;;18.95;;
40204;SDS011;26963;42.666;23.366;2023-09-18T01:08:32;20.77;;;18.83;;
40204;SDS011;26963;42.666;23.366;2023-09-18T01:11:06;18.98;;;17.00;;
40204;SDS011;26963;42.666;23.366;2023-09-18T01:13:37;17.80;;;16.00;;
40204;SDS011;26963;42.666;23.366;2023-09-18T01:16:13;18.33;;;16.48;;
40204;SDS011;26963;42.666;23.366;2023-09-18T01:18:49;17.98;;;16.02;;
40204;SDS011;26963;42.666;23.366;2023-09-18T01:21:15;18.23;;;15.50;;
40204;SDS011;26963;42.666;23.366;2023-09-18T01:23:42;17.38;;;15.48;;
40204;SDS011;26963;42.666;23.366;2023-09-18T01:26:07;16.35;;;14.50;;
40204;SDS011;26963;42.666;23.366;2023-09-18T01:28:33;17.40;;;15.70;;
40204;SDS011;26963;42.666;23.366;2023-09-18T01:30:58;17.38;;;15.63;;
40204;SDS011;26963;42.666;23.366;2023-09-18T01:33:24;17.33;;;15.32;;
40204;SDS011;26963;42.666;23.366;2023-09-18T01:35:52;16.77;;;15.18;;
40204;SDS011;26963;42.666;23.366;2023-09-18T01:38:21;16.15;;;14.20;;
40204;SDS011;26963;42.666;23.366;2023-09-18T01:40:48;17.48;;;14.98;;
40204;SDS011;26963;42.666;23.366;2023-09-18T01:43:14;16.27;;;14.77;;
40204;SDS011;26963;42.666;23.366;2023-09-18T01:45:39;17.80;;;14.70;;
40204;SDS011;26963;42.666;23.366;2023-09-18T01:48:05;19.27;;;14.68;;
40204;SDS011;26963;42.666;23.366;2023-09-18T01:50:31;15.68;;;14.15;;
40204;SDS011;26963;42.666;23.366;2023-09-18T01:52:58;15.77;;;14.10;;
40204;SDS011;26963;42.666;23.366;2023-09-18T01:55:24;16.75;;;15.07;;
40204;SDS011;26963;42.666;23.366;2023-09-18T01:57:49;16.23;;;14.55;;
40204;SDS011;26963;42.666;23.366;2023-09-18T02:00:15;16.50;;;14.77;;
40204;SDS011;26963;42.666;23.366;2023-09-18T02:02:41;16.95;;;15.18;;
40204;SDS011;26963;42.666;23.366;2023-09-18T02:05:06;16.45;;;14.85;;
40204;SDS011;26963;42.666;23.366;2023-09-18T02:07:32;16.98;;;15.18;;
40204;SDS011;26963;42.666;23.366;2023-09-18T02:09:57;17.52;;;15.80;;
40204;SDS011;26963;42.666;23.366;2023-09-18T02:12:23;16.90;;;15.30;;
40204;SDS011;26963;42.666;23.366;2023-09-18T02:14:49;17.27;;;15.68;;
40204;SDS011;26963;42.666;23.366;2023-09-18T02:17:14;17.48;;;15.18;;
40204;SDS011;26963;42.666;23.366;2023-09-18T02:19:40;17.05;;;14.98;;
40204;SDS011;26963;42.666;23.366;2023-09-18T02:22:06;17.38;;;15.52;;
40204;SDS011;26963;42.666;23.366;2023-09-18T02:24:31;16.85;;;15.15;;
40204;SDS011;26963;42.666;23.366;2023-09-18T02:26:57;18.35;;;14.18;;
40204;SDS011;26963;42.666;23.366;2023-09-18T02:29:23;19.38;;;14.60;;
40204;SDS011;26963;42.666;23.366;2023-09-18T02:31:48;17.08;;;14.90;;
40204;SDS011;26963;42.666;23.366;2023-09-18T02:34:14;16.95;;;14.02;;
40204;SDS011;26963;42.666;23.366;2023-09-18T02:36:39;16.00;;;13.93;;
40204;SDS011;26963;42.666;23.366;2023-09-18T02:39:05;15.52;;;14.02;;
40204;SDS011;26963;42.666;23.366;2023-09-18T02:41:31;18.00;;;14.02;;
40204;SDS011;26963;42.666;23.366;2023-09-18T02:43:57;15.35;;;13.80;;
40204;SDS011;26963;42.666;23.366;2023-09-18T02:46:22;15.30;;;13.75;;
40204;SDS011;26963;42.666;23.366;2023-09-18T02:48:48;14.90;;;13.23;;
40204;SDS011;26963;42.666;23.366;2023-09-18T02:51:13;16.38;;;12.93;;
40204;SDS011;26963;42.666;23.366;2023-09-18T02:53:39;15.65;;;12.82;;
40204;SDS011;26963;42.666;23.366;2023-09-18T02:56:04;16.20;;;13.52;;
40204;SDS011;26963;42.666;23.366;2023-09-18T02:58:30;15.02;;;12.68;;
40204;SDS011;26963;42.666;23.366;2023-09-18T03:00:56;18.17;;;13.80;;
40204;SDS011;26963;42.666;23.366;2023-09-18T03:03:24;15.35;;;13.73;;
40204;SDS011;26963;42.666;23.366;2023-09-18T03:05:51;15.35;;;13.77;;
40204;SDS011;26963;42.666;23.366;2023-09-18T03:08:16;17.50;;;13.75;;
40204;SDS011;26963;42.666;23.366;2023-09-18T03:10:42;15.43;;;13.82;;
40204;SDS011;26963;42.666;23.366;2023-09-18T03:13:09;14.80;;;13.27;;
40204;SDS011;26963;42.666;23.366;2023-09-18T03:15:35;14.27;;;12.77;;
40204;SDS011;26963;42.666;23.366;2023-09-18T03:18:02;14.70;;;13.13;;
40204;SDS011;26963;42.666;23.366;2023-09-18T03:20:32;14.82;;;13.15;;
40204;SDS011;26963;42.666;23.366;2023-09-18T03:22:58;15.82;;;13.40;;
40204;SDS011;26963;42.666;23.366;2023-09-18T03:25:25;14.75;;;12.85;;
40204;SDS011;26963;42.666;23.366;2023-09-18T03:27:52;16.55;;;12.50;;
40204;SDS011;26963;42.666;23.366;2023-09-18T03:30:19;15.05;;;12.65;;
40204;SDS011;26963;42.666;23.366;2023-09-18T03:32:45;16.52;;;13.60;;
40204;SDS011;26963;42.666;23.366;2023-09-18T03:35:11;14.55;;;13.10;;
40204;SDS011;26963;42.666;23.366;2023-09-18T03:40:12;16.52;;;13.55;;
40204;SDS011;26963;42.666;23.366;2023-09-18T03:42:38;15.93;;;13.32;;
40204;SDS011;26963;42.666;23.366;2023-09-18T03:45:05;15.43;;;13.93;;
40204;SDS011;26963;42.666;23.366;2023-09-18T03:47:31;17.13;;;15.50;;
40204;SDS011;26963;42.666;23.366;2023-09-18T03:49:58;17.45;;;15.65;;
40204;SDS011;26963;42.666;23.366;2023-09-18T03:52:24;16.13;;;14.52;;
40204;SDS011;26963;42.666;23.366;2023-09-18T03:54:52;16.88;;;14.30;;
40204;SDS011;26963;42.666;23.366;2023-09-18T03:57:18;17.27;;;15.48;;
40204;SDS011;26963;42.666;23.366;2023-09-18T03:59:44;17.33;;;15.52;;
40204;SDS011;26963;42.666;23.366;2023-09-18T04:02:09;16.25;;;14.63;;
40204;SDS011;26963;42.666;23.366;2023-09-18T04:04:35;19.20;;;16.60;;
40204;SDS011;26963;42.666;23.366;2023-09-18T04:07:04;23.33;;;19.17;;
40204;SDS011;26963;42.666;23.366;2023-09-18T04:09:31;19.90;;;17.95;;
40204;SDS011;26963;42.666;23.366;2023-09-18T04:11:56;18.52;;;16.15;;
40204;SDS011;26963;42.666;23.366;2023-09-18T04:14:22;20.80;;;17.02;;
40204;SDS011;26963;42.666;23.366;2023-09-18T04:16:48;24.65;;;20.35;;
40204;SDS011;26963;42.666;23.366;2023-09-18T04:19:16;28.10;;;23.95;;
40204;SDS011;26963;42.666;23.366;2023-09-18T04:21:42;20.40;;;18.40;;
40204;SDS011;26963;42.666;23.366;2023-09-18T04:24:07;19.17;;;16.50;;
40204;SDS011;26963;42.666;23.366;2023-09-18T04:26:33;19.00;;;17.00;;
40204;SDS011;26963;42.666;23.366;2023-09-18T04:28:59;19.75;;;16.63;;
40204;SDS011;26963;42.666;23.366;2023-09-18T04:31:26;21.00;;;16.98;;
40204;SDS011;26963;42.666;23.366;2023-09-18T04:33:52;19.83;;;15.90;;
40204;SDS011;26963;42.666;23.366;2023-09-18T04:36:18;20.02;;;16.85;;
40204;SDS011;26963;42.666;23.366;2023-09-18T04:38:44;19.52;;;15.80;;
40204;SDS011;26963;42.666;23.366;2023-09-18T04:41:10;19.73;;;15.98;;
40204;SDS011;26963;42.666;23.366;2023-09-18T04:43:36;21.08;;;16.98;;
40204;SDS011;26963;42.666;23.366;2023-09-18T04:46:05;19.65;;;16.35;;
40204;SDS011;26963;42.666;23.366;2023-09-18T04:48:31;24.20;;;20.98;;
40204;SDS011;26963;42.666;23.366;2023-09-18T04:50:57;25.20;;;22.40;;
40204;SDS011;26963;42.666;23.366;2023-09-18T04:53:24;31.90;;;27.98;;
40204;SDS011;26963;42.666;23.366;2023-09-18T04:55:50;22.13;;;19.45;;
40204;SDS011;26963;42.666;23.366;2023-09-18T04:58:18;50.95;;;45.38;;
40204;SDS011;26963;42.666;23.366;2023-09-18T05:00:57;32.15;;;28.48;;
40204;SDS011;26963;42.666;23.366;2023-09-18T05:03:26;27.13;;;23.13;;
40204;SDS011;26963;42.666;23.366;2023-09-18T05:05:52;23.80;;;21.30;;
40204;SDS011;26963;42.666;23.366;2023-09-18T05:08:17;22.85;;;20.10;;
40204;SDS011;26963;42.666;23.366;2023-09-18T05:10:44;23.73;;;20.58;;
40204;SDS011;26963;42.666;23.366;2023-09-18T05:13:11;25.63;;;19.92;;
40204;SDS011;26963;42.666;23.366;2023-09-18T05:15:37;27.55;;;21.38;;
40204;SDS011;26963;42.666;23.366;2023-09-18T05:18:03;27.42;;;21.00;;
40204;SDS011;26963;42.666;23.366;2023-09-18T05:20:29;30.45;;;23.10;;
40204;SDS011;26963;42.666;23.366;2023-09-18T05:22:56;24.38;;;21.80;;
40204;SDS011;26963;42.666;23.366;2023-09-18T05:25:23;29.73;;;22.27;;
40204;SDS011;26963;42.666;23.366;2023-09-18T05:27:51;24.75;;;21.73;;
40204;SDS011;26963;42.666;23.366;2023-09-18T05:30:24;30.08;;;20.50;;
40204;SDS011;26963;42.666;23.366;2023-09-18T05:32:59;24.10;;;19.95;;
40204;SDS011;26963;42.666;23.366;2023-09-18T05:35:50;24.88;;;21.50;;
40204;SDS011;26963;42.666;23.366;2023-09-18T05:38:16;25.83;;;22.45;;
40204;SDS011;26963;42.666;23.366;2023-09-18T05:40:43;28.15;;;23.67;;
40204;SDS011;26963;42.666;23.366;2023-09-18T05:43:10;27.25;;;23.98;;
40204;SDS011;26963;42.666;23.366;2023-09-18T05:45:37;22.40;;;19.92;;
40204;SDS011;26963;42.666;23.366;2023-09-18T05:48:03;25.25;;;21.15;;
40204;SDS011;26963;42.666;23.366;2023-09-18T05:50:29;23.35;;;20.45;;
40204;SDS011;26963;42.666;23.366;2023-09-18T05:52:57;30.20;;;23.20;;
40204;SDS011;26963;42.666;23.366;2023-09-18T05:55:29;27.85;;;22.30;;
40204;SDS011;26963;42.666;23.366;2023-09-18T05:57:55;25.45;;;21.00;;
40204;SDS011;26963;42.666;23.366;2023-09-18T06:00:22;22.98;;;20.55;;
40204;SDS011;26963;42.666;23.366;2023-09-18T06:02:48;22.10;;;19.58;;
40204;SDS011;26963;42.666;23.366;2023-09-18T06:05:13;26.90;;;22.13;;
40204;SDS011;26963;42.666;23.366;2023-09-18T06:07:41;23.55;;;19.20;;
40204;SDS011;26963;42.666;23.366;2023-09-18T06:10:07;24.08;;;17.00;;
40204;SDS011;26963;42.666;23.366;2023-09-18T06:12:33;18.88;;;16.08;;
40204;SDS011;26963;42.666;23.366;2023-09-18T06:14:58;18.73;;;15.95;;
40204;SDS011;26963;42.666;23.366;2023-09-18T06:17:44;18.65;;;15.38;;
40204;SDS011;26963;42.666;23.366;2023-09-18T06:20:10;21.63;;;17.17;;
40204;SDS011;26963;42.666;23.366;2023-09-18T06:22:38;22.02;;;17.20;;
40204;SDS011;26963;42.666;23.366;2023-09-18T06:25:05;20.25;;;16.20;;
40204;SDS011;26963;42.666;23.366;2023-09-18T06:27:34;19.70;;;16.48;;
40204;SDS011;26963;42.666;23.366;2023-09-18T06:30:02;20.45;;;15.88;;
40204;SDS011;26963;42.666;23.366;2023-09-18T06:32:28;18.20;;;15.95;;
40204;SDS011;26963;42.666;23.366;2023-09-18T06:34:54;19.40;;;15.23;;
40204;SDS011;26963;42.666;23.366;2023-09-18T06:37:19;18.25;;;16.15;;
40204;SDS011;26963;42.666;23.366;2023-09-18T06:39:45;18.60;;;15.43;;
40204;SDS011;26963;42.666;23.366;2023-09-18T06:42:11;18.52;;;16.33;;
40204;SDS011;26963;42.666;23.366;2023-09-18T06:44:37;17.63;;;15.40;;
40204;SDS011;26963;42.666;23.366;2023-09-18T06:47:03;18.90;;;15.85;;
40204;SDS011;26963;42.666;23.366;2023-09-18T06:49:28;16.20;;;14.60;;
40204;SDS011;26963;42.666;23.366;2023-09-18T06:51:57;17.58;;;15.77;;
40204;SDS011;26963;42.666;23.366;2023-09-18T06:54:23;18.20;;;16.40;;
40204;SDS011;26963;42.666;23.366;2023-09-18T06:56:49;18.42;;;15.70;;
40204;SDS011;26963;42.666;23.366;2023-09-18T06:59:15;17.08;;;15.27;;
40204;SDS011;26963;42.666;23.366;2023-09-18T07:01:41;17.90;;;16.00;;
40204;SDS011;26963;42.666;23.366;2023-09-18T07:04:07;17.45;;;15.65;;
40204;SDS011;26963;42.666;23.366;2023-09-18T07:06:32;16.63;;;14.77;;
40204;SDS011;26963;42.666;23.366;2023-09-18T07:08:58;17.02;;;15.13;;
40204;SDS011;26963;42.666;23.366;2023-09-18T07:11:24;15.85;;;13.32;;
40204;SDS011;26963;42.666;23.366;2023-09-18T07:13:50;15.70;;;14.05;;
40204;SDS011;26963;42.666;23.366;2023-09-18T07:16:16;19.23;;;15.07;;
40204;SDS011;26963;42.666;23.366;2023-09-18T07:18:42;16.58;;;14.77;;
40204;SDS011;26963;42.666;23.366;2023-09-18T07:21:07;15.48;;;13.90;;
40204;SDS011;26963;42.666;23.366;2023-09-18T07:23:33;15.95;;;13.68;;
40204;SDS011;26963;42.666;23.366;2023-09-18T07:26:02;14.65;;;13.23;;
40204;SDS011;26963;42.666;23.366;2023-09-18T07:28:28;14.52;;;13.10;;
40204;SDS011;26963;42.666;23.366;2023-09-18T07:30:53;17.65;;;13.98;;
40204;SDS011;26963;42.666;23.366;2023-09-18T07:33:19;15.73;;;13.52;;
40204;SDS011;26963;42.666;23.366;2023-09-18T07:35:47;16.85;;;15.18;;
40204;SDS011;26963;42.666;23.366;2023-09-18T07:38:13;16.75;;;15.18;;
40204;SDS011;26963;42.666;23.366;2023-09-18T07:40:39;15.90;;;13.43;;
40204;SDS011;26963;42.666;23.366;2023-09-18T07:43:05;16.65;;;14.05;;
40204;SDS011;26963;42.666;23.366;2023-09-18T07:45:31;17.92;;;14.50;;
40204;SDS011;26963;42.666;23.366;2023-09-18T07:47:56;14.82;;;13.15;;
40204;SDS011;26963;42.666;23.366;2023-09-18T07:50:22;14.45;;;13.00;;
40204;SDS011;26963;42.666;23.366;2023-09-18T07:52:47;15.68;;;14.18;;
40204;SDS011;26963;42.666;23.366;2023-09-18T07:55:16;17.08;;;15.05;;
40204;SDS011;26963;42.666;23.366;2023-09-18T07:57:42;15.90;;;14.50;;
40204;SDS011;26963;42.666;23.366;2023-09-18T08:00:09;14.90;;;13.48;;
40204;SDS011;26963;42.666;23.366;2023-09-18T08:02:38;13.95;;;12.05;;
40204;SDS011;26963;42.666;23.366;2023-09-18T08:05:05;15.15;;;13.50;;
40204;SDS011;26963;42.666;23.366;2023-09-18T08:07:31;14.35;;;12.93;;
40204;SDS011;26963;42.666;23.366;2023-09-18T08:09:57;15.15;;;11.85;;
40204;SDS011;26963;42.666;23.366;2023-09-18T08:12:23;14.55;;;12.05;;
40204;SDS011;26963;42.666;23.366;2023-09-18T08:14:49;13.75;;;12.45;;
40204;SDS011;26963;42.666;23.366;2023-09-18T08:17:15;16.67;;;12.88;;
40204;SDS011;26963;42.666;23.366;2023-09-18T08:19:41;15.15;;;12.45;;
40204;SDS011;26963;42.666;23.366;2023-09-18T08:22:09;13.48;;;12.07;;
40204;SDS011;26963;42.666;23.366;2023-09-18T08:24:37;13.13;;;11.75;;
40204;SDS011;26963;42.666;23.366;2023-09-18T08:27:02;14.00;;;12.70;;
40204;SDS011;26963;42.666;23.366;2023-09-18T08:29:28;15.10;;;13.27;;
40204;SDS011;26963;42.666;23.366;2023-09-18T08:31:54;16.38;;;12.52;;
40204;SDS011;26963;42.666;23.366;2023-09-18T08:34:19;12.88;;;11.65;;
40204;SDS011;26963;42.666;23.366;2023-09-18T08:36:45;13.32;;;11.93;;
40204;SDS011;26963;42.666;23.366;2023-09-18T08:39:10;14.30;;;12.80;;
40204;SDS011;26963;42.666;23.366;2023-09-18T08:41:38;13.20;;;11.80;;
40204;SDS011;26963;42.666;23.366;2023-09-18T08:44:07;14.07;;;12.68;;
40204;SDS011;26963;42.666;23.366;2023-09-18T08:46:34;12.85;;;11.57;;
40204;SDS011;26963;42.666;23.366;2023-09-18T08:49:00;13.80;;;12.40;;
40204;SDS011;26963;42.666;23.366;2023-09-18T08:51:27;15.48;;;13.93;;
40204;SDS011;26963;42.666;23.366;2023-09-18T08:53:54;18.98;;;13.13;;
40204;SDS011;26963;42.666;23.366;2023-09-18T08:56:20;16.02;;;13.18;;
40204;SDS011;26963;42.666;23.366;2023-09-18T08:58:47;17.45;;;13.05;;
40204;SDS011;26963;42.666;23.366;2023-09-18T09:01:13;15.18;;;13.60;;
40204;SDS011;26963;42.666;23.366;2023-09-18T09:03:39;14.73;;;13.32;;
40204;SDS011;26963;42.666;23.366;2023-09-18T09:06:07;15.07;;;13.43;;
40204;SDS011;26963;42.666;23.366;2023-09-18T09:08:33;14.45;;;11.93;;
40204;SDS011;26963;42.666;23.366;2023-09-18T09:10:59;13.77;;;12.35;;
40204;SDS011;26963;42.666;23.366;2023-09-18T09:13:25;15.35;;;12.13;;
40204;SDS011;26963;42.666;23.366;2023-09-18T09:15:55;14.93;;;11.23;;
40204;SDS011;26963;42.666;23.366;2023-09-18T09:18:23;13.38;;;11.85;;
40204;SDS011;26963;42.666;23.366;2023-09-18T09:20:53;14.15;;;11.80;;
40204;SDS011;26963;42.666;23.366;2023-09-18T09:23:27;13.95;;;12.50;;
40204;SDS011;26963;42.666;23.366;2023-09-18T09:26:11;13.10;;;11.35;;
40204;SDS011;26963;42.666;23.366;2023-09-18T09:28:42;15.20;;;12.48;;
40204;SDS011;26963;42.666;23.366;2023-09-18T09:31:08;12.50;;;11.20;;
40204;SDS011;26963;42.666;23.366;2023-09-18T09:33:36;11.15;;;10.05;;
40204;SDS011;26963;42.666;23.366;2023-09-18T09:36:06;13.60;;;11.07;;
40204;SDS011;26963;42.666;23.366;2023-09-18T09:38:33;12.48;;;10.32;;
40204;SDS011;26963;42.666;23.366;2023-09-18T09:41:00;11.38;;;10.20;;
40204;SDS011;26963;42.666;23.366;2023-09-18T09:43:27;10.77;;;9.70;;
40204;SDS011;26963;42.666;23.366;2023-09-18T09:45:59;12.52;;;9.63;;
40204;SDS011;26963;42.666;23.366;2023-09-18T09:48:26;13.70;;;10.07;;
40204;SDS011;26963;42.666;23.366;2023-09-18T09:50:57;11.20;;;8.73;;
40204;SDS011;26963;42.666;23.366;2023-09-18T09:56:10;10.50;;;9.40;;
40204;SDS011;26963;42.666;23.366;2023-09-18T09:58:35;10.52;;;9.18;;
40204;SDS011;26963;42.666;23.366;2023-09-18T10:01:05;10.27;;;9.18;;
40204;SDS011;26963;42.666;23.366;2023-09-18T10:03:36;10.60;;;9.05;;
40204;SDS011;26963;42.666;23.366;2023-09-18T10:06:03;11.25;;;9.07;;
40204;SDS011;26963;42.666;23.366;2023-09-18T10:08:31;12.40;;;9.07;;
40204;SDS011;26963;42.666;23.366;2023-09-18T10:11:00;11.05;;;9.25;;
40204;SDS011;26963;42.666;23.366;2023-09-18T10:16:36;9.88;;;8.77;;
40204;SDS011;26963;42.666;23.366;2023-09-18T10:24:19;12.13;;;8.70;;
40204;SDS011;26963;42.666;23.366;2023-09-18T10:29:25;13.52;;;8.63;;
40204;SDS011;26963;42.666;23.366;2023-09-18T10:31:53;8.60;;;7.63;;
40204;SDS011;26963;42.666;23.366;2023-09-18T10:34:19;9.15;;;7.55;;
40204;SDS011;26963;42.666;23.366;2023-09-18T10:36:46;9.07;;;7.05;;
40204;SDS011;26963;42.666;23.366;2023-09-18T10:39:13;7.20;;;6.50;;
40204;SDS011;26963;42.666;23.366;2023-09-18T10:41:47;9.27;;;6.72;;
40204;SDS011;26963;42.666;23.366;2023-09-18T10:44:13;10.68;;;7.50;;
40204;SDS011;26963;42.666;23.366;2023-09-18T10:46:43;10.13;;;6.65;;
40204;SDS011;26963;42.666;23.366;2023-09-18T10:49:10;10.23;;;6.22;;
40204;SDS011;26963;42.666;23.366;2023-09-18T10:51:36;9.82;;;5.93;;
40204;SDS011;26963;42.666;23.366;2023-09-18T10:54:10;10.48;;;6.28;;
40204;SDS011;26963;42.666;23.366;2023-09-18T10:56:36;8.23;;;6.00;;
40204;SDS011;26963;42.666;23.366;2023-09-18T10:59:02;7.85;;;5.78;;
40204;SDS011;26963;42.666;23.366;2023-09-18T11:01:33;8.95;;;6.38;;
40204;SDS011;26963;42.666;23.366;2023-09-18T11:04:02;10.25;;;6.60;;
40204;SDS011;26963;42.666;23.366;2023-09-18T11:06:29;7.20;;;6.35;;
40204;SDS011;26963;42.666;23.366;2023-09-18T11:08:59;9.43;;;6.18;;
40204;SDS011;26963;42.666;23.366;2023-09-18T11:11:31;9.80;;;6.13;;
40204;SDS011;26963;42.666;23.366;2023-09-18T11:14:00;7.10;;;5.90;;
40204;SDS011;26963;42.666;23.366;2023-09-18T11:21:33;9.05;;;6.00;;
40204;SDS011;26963;42.666;23.366;2023-09-18T11:26:28;8.30;;;5.50;;
40204;SDS011;26963;42.666;23.366;2023-09-18T11:29:01;8.15;;;5.47;;
40204;SDS011;26963;42.666;23.366;2023-09-18T11:31:49;6.60;;;5.50;;
40204;SDS011;26963;42.666;23.366;2023-09-18T11:34:29;9.13;;;5.20;;
40204;SDS011;26963;42.666;23.366;2023-09-18T11:37:22;6.13;;;5.47;;
40204;SDS011;26963;42.666;23.366;2023-09-18T11:39:51;6.95;;;5.20;;
40204;SDS011;26963;42.666;23.366;2023-09-18T11:42:20;8.00;;;4.65;;
40204;SDS011;26963;42.666;23.366;2023-09-18T11:44:51;8.20;;;5.05;;
40204;SDS011;26963;42.666;23.366;2023-09-18T11:47:19;7.18;;;5.50;;
40204;SDS011;26963;42.666;23.366;2023-09-18T11:52:32;16.15;;;5.40;;
40204;SDS011;26963;42.666;23.366;2023-09-18T11:55:00;8.57;;;4.63;;
40204;SDS011;26963;42.666;23.366;2023-09-18T11:57:26;53.83;;;8.23;;
40204;SDS011;26963;42.666;23.366;2023-09-18T11:59:53;19.98;;;5.32;;
40204;SDS011;26963;42.666;23.366;2023-09-18T12:02:27;10.40;;;5.07;;
40204;SDS011;26963;42.666;23.366;2023-09-18T12:05:21;13.35;;;5.63;;
40204;SDS011;26963;42.666;23.366;2023-09-18T12:07:46;10.63;;;5.35;;
40204;SDS011;26963;42.666;23.366;2023-09-18T12:10:13;9.10;;;5.55;;
40204;SDS011;26963;42.666;23.366;2023-09-18T12:12:42;10.68;;;5.32;;
40204;SDS011;26963;42.666;23.366;2023-09-18T12:15:12;8.80;;;5.30;;
40204;SDS011;26963;42.666;23.366;2023-09-18T12:17:42;9.27;;;5.18;;
40204;SDS011;26963;42.666;23.366;2023-09-18T12:20:15;9.40;;;5.55;;
40204;SDS011;26963;42.666;23.366;2023-09-18T12:22:46;8.38;;;5.53;;
40204;SDS011;26963;42.666;23.366;2023-09-18T12:25:16;8.77;;;5.25;;
40204;SDS011;26963;42.666;23.366;2023-09-18T12:27:43;8.00;;;5.72;;
40204;SDS011;26963;42.666;23.366;2023-09-18T12:30:12;9.35;;;6.53;;
40204;SDS011;26963;42.666;23.366;2023-09-18T12:32:45;8.77;;;5.75;;
40204;SDS011;26963;42.666;23.366;2023-09-18T12:35:13;14.00;;;6.18;;
40204;SDS011;26963;42.666;23.366;2023-09-18T12:37:40;27.40;;;7.38;;
40204;SDS011;26963;42.666;23.366;2023-09-18T12:40:06;18.50;;;6.43;;
40204;SDS011;26963;42.666;23.366;2023-09-18T12:42:45;18.25;;;6.63;;
40204;SDS011;26963;42.666;23.366;2023-09-18T12:45:12;29.25;;;7.05;;
40204;SDS011;26963;42.666;23.366;2023-09-18T12:47:38;23.88;;;7.28;;
40204;SDS011;26963;42.666;23.366;2023-09-18T12:50:07;22.42;;;7.07;;
40204;SDS011;26963;42.666;23.366;2023-09-18T12:52:32;15.27;;;6.82;;
40204;SDS011;26963;42.666;23.366;2023-09-18T12:54:58;7.25;;;5.10;;
40204;SDS011;26963;42.666;23.366;2023-09-18T12:57:26;11.48;;;5.80;;
40204;SDS011;26963;42.666;23.366;2023-09-18T12:59:52;8.20;;;5.60;;
40204;SDS011;26963;42.666;23.366;2023-09-18T13:02:20;9.63;;;5.60;;
40204;SDS011;26963;42.666;23.366;2023-09-18T13:04:52;8.77;;;5.82;;
40204;SDS011;26963;42.666;23.366;2023-09-18T13:07:19;8.00;;;5.10;;
40204;SDS011;26963;42.666;23.366;2023-09-18T13:10:05;6.55;;;5.15;;
40204;SDS011;26963;42.666;23.366;2023-09-18T13:12:51;10.27;;;6.05;;
40204;SDS011;26963;42.666;23.366;2023-09-18T13:15:26;9.38;;;6.35;;
40204;SDS011;26963;42.666;23.366;2023-09-18T13:17:53;7.82;;;5.68;;
40204;SDS011;26963;42.666;23.366;2023-09-18T13:20:26;12.25;;;10.85;;
40204;SDS011;26963;42.666;23.366;2023-09-18T13:22:57;10.10;;;7.35;;
40204;SDS011;26963;42.666;23.366;2023-09-18T13:25:28;9.00;;;6.63;;
40204;SDS011;26963;42.666;23.366;2023-09-18T13:27:58;6.75;;;6.05;;
40204;SDS011;26963;42.666;23.366;2023-09-18T13:30:23;6.13;;;5.20;;
40204;SDS011;26963;42.666;23.366;2023-09-18T13:32:49;9.50;;;6.07;;
40204;SDS011;26963;42.666;23.366;2023-09-18T13:35:16;7.72;;;5.50;;
40204;SDS011;26963;42.666;23.366;2023-09-18T13:37:42;8.60;;;6.07;;
40204;SDS011;26963;42.666;23.366;2023-09-18T13:40:11;8.05;;;5.68;;
40204;SDS011;26963;42.666;23.366;2023-09-18T13:42:38;17.58;;;7.65;;
40204;SDS011;26963;42.666;23.366;2023-09-18T13:45:04;9.65;;;5.97;;
40204;SDS011;26963;42.666;23.366;2023-09-18T13:47:31;9.50;;;5.97;;
40204;SDS011;26963;42.666;23.366;2023-09-18T13:49:59;10.32;;;5.70;;
40204;SDS011;26963;42.666;23.366;2023-09-18T13:52:28;9.73;;;5.75;;
40204;SDS011;26963;42.666;23.366;2023-09-18T13:54:55;7.80;;;5.50;;
40204;SDS011;26963;42.666;23.366;2023-09-18T13:57:21;7.72;;;4.93;;
40204;SDS011;26963;42.666;23.366;2023-09-18T13:59:47;17.13;;;6.53;;
40204;SDS011;26963;42.666;23.366;2023-09-18T14:02:14;10.27;;;5.68;;
40204;SDS011;26963;42.666;23.366;2023-09-18T14:04:41;20.67;;;14.98;;
40204;SDS011;26963;42.666;23.366;2023-09-18T14:07:07;13.25;;;8.77;;
40204;SDS011;26963;42.666;23.366;2023-09-18T14:09:33;8.98;;;6.78;;
40204;SDS011;26963;42.666;23.366;2023-09-18T14:11:59;9.32;;;7.22;;
40204;SDS011;26963;42.666;23.366;2023-09-18T14:14:25;7.03;;;6.30;;
40204;SDS011;26963;42.666;23.366;2023-09-18T14:16:51;8.43;;;6.55;;
40204;SDS011;26963;42.666;23.366;2023-09-18T14:19:17;6.97;;;5.90;;
40204;SDS011;26963;42.666;23.366;2023-09-18T14:21:43;12.43;;;7.38;;
40204;SDS011;26963;42.666;23.366;2023-09-18T14:24:11;9.63;;;5.45;;
40204;SDS011;26963;42.666;23.366;2023-09-18T14:26:37;7.95;;;5.38;;
40204;SDS011;26963;42.666;23.366;2023-09-18T14:29:07;14.27;;;12.73;;
40204;SDS011;26963;42.666;23.366;2023-09-18T14:31:33;12.43;;;6.47;;
40204;SDS011;26963;42.666;23.366;2023-09-18T14:33:59;9.75;;;7.97;;
40204;SDS011;26963;42.666;23.366;2023-09-18T14:36:28;9.02;;;6.28;;
40204;SDS011;26963;42.666;23.366;2023-09-18T14:38:55;7.22;;;5.60;;
40204;SDS011;26963;42.666;23.366;2023-09-18T14:41:23;6.40;;;5.47;;
40204;SDS011;26963;42.666;23.366;2023-09-18T14:43:50;7.93;;;5.20;;